Time;durP1;ratioP1;P1;durP2;ratioP2;P2;SDS_P1;SDS_P2;PMS_P1;PMS_P2;Temp;Humidity;BMP_temperature;BMP_pressure;BME280_temperature;BME280_humidity;BME280_pressure;Samples;Min_cycle;Max_cycle;Signal;HPM_P1;HPM_P2
2023/02/25 00:02:13;;;;;;;30.52;8.63;;;;;;;12.23;100.00;101898.53;5084070;28;20065;-74
2023/02/25 00:04:40;;;;;;;35.90;8.88;;;;;;;12.19;100.00;101902.19;5095642;28;20020;-79
2023/02/25 00:07:07;;;;;;;31.58;8.80;;;;;;;12.26;100.00;101902.63;5095799;28;20389;-78
2023/02/25 00:09:33;;;;;;;34.28;10.48;;;;;;;12.28;100.00;101908.63;5095613;28;20097;-76
2023/02/25 00:11:59;;;;;;;25.67;8.93;;;;;;;12.38;100.00;101905.72;5095623;28;20036;-78
2023/02/25 00:14:24;;;;;;;31.73;8.98;;;;;;;12.39;100.00;101901.91;5091392;28;20158;-79
2023/02/25 00:16:54;;;;;;;23.42;7.15;;;;;;;12.48;100.00;101900.13;5088113;28;20035;-74
2023/02/25 00:19:21;;;;;;;26.38;7.97;;;;;;;12.35;100.00;101897.31;5087944;28;20109;-66
2023/02/25 00:21:47;;;;;;;33.17;8.15;;;;;;;12.14;100.00;101888.56;5083382;28;20435;-79
2023/02/25 00:24:13;;;;;;;34.78;9.07;;;;;;;12.04;100.00;101889.53;5087893;28;20020;-67
2023/02/25 00:26:39;;;;;;;25.95;8.13;;;;;;;12.18;100.00;101890.41;5091098;28;20020;-77
2023/02/25 00:29:05;;;;;;;29.58;8.45;;;;;;;12.11;100.00;101894.63;5091647;28;20370;-76
2023/02/25 00:31:31;;;;;;;31.35;8.63;;;;;;;12.16;100.00;101898.09;5094916;28;20016;-73
2023/02/25 00:33:57;;;;;;;26.73;9.15;;;;;;;12.39;100.00;101895.59;5095053;28;20075;-76
2023/02/25 00:36:25;;;;;;;30.08;8.18;;;;;;;12.48;100.00;101889.16;5094693;28;20134;-65
2023/02/25 00:38:54;;;;;;;22.67;7.53;;;;;;;12.44;100.00;101893.59;5094641;28;20028;-65
2023/02/25 00:41:23;;;;;;;23.92;7.43;;;;;;;12.42;100.00;101900.50;5094536;28;20107;-72
2023/02/25 00:44:00;;;;;;;23.27;8.65;;;;;;;12.42;100.00;101898.56;5094822;28;20066;-65
2023/02/25 00:46:28;;;;;;;29.27;7.50;;;;;;;12.43;100.00;101889.22;5094757;28;20020;-65
2023/02/25 00:48:54;;;;;;;29.25;8.10;;;;;;;12.40;100.00;101898.06;5094585;28;20034;-65
2023/02/25 00:51:23;;;;;;;24.45;7.68;;;;;;;12.37;100.00;101892.34;5094693;28;20020;-65
2023/02/25 00:53:48;;;;;;;32.90;9.20;;;;;;;12.49;100.00;101884.47;5094635;28;20107;-78
2023/02/25 00:56:16;;;;;;;30.77;6.85;;;;;;;12.32;100.00;101890.50;5094604;28;20115;-78
2023/02/25 00:58:43;;;;;;;26.15;6.65;;;;;;;12.22;100.00;101896.09;5094740;28;20023;-65
2023/02/25 01:01:21;;;;;;;23.52;7.38;;;;;;;12.29;100.00;101895.75;5094389;28;20020;-73
2023/02/25 01:03:48;;;;;;;28.77;7.53;;;;;;;12.36;100.00;101893.44;5094483;28;20044;-76
2023/02/25 01:06:15;;;;;;;24.27;6.82;;;;;;;12.51;100.00;101898.69;5094404;28;20089;-77
2023/02/25 01:08:41;;;;;;;26.85;7.68;;;;;;;12.66;100.00;101897.66;5094162;28;20027;-64
2023/02/25 01:11:26;;;;;;;30.98;7.80;;;;;;;12.70;100.00;101899.50;5094417;28;20036;-72
2023/02/25 01:13:52;;;;;;;22.92;7.38;;;;;;;12.85;100.00;101901.19;5094390;28;20031;-78
2023/02/25 01:16:21;;;;;;;20.48;7.90;;;;;;;12.93;100.00;101907.91;5094275;28;20020;-79
2023/02/25 01:18:47;;;;;;;19.10;7.25;;;;;;;12.90;100.00;101906.56;5076086;28;20031;-77
2023/02/25 01:21:19;;;;;;;21.38;7.57;;;;;;;12.87;100.00;101900.88;5094479;28;20028;-79
2023/02/25 01:23:46;;;;;;;24.10;8.23;;;;;;;12.89;100.00;101901.38;5094429;28;20483;-65
2023/02/25 01:26:13;;;;;;;23.05;5.72;;;;;;;12.75;100.00;101904.88;5092416;28;20111;-65
2023/02/25 01:28:39;;;;;;;23.67;7.13;;;;;;;12.75;100.00;101893.91;5093389;28;20095;-72
2023/02/25 01:31:07;;;;;;;21.48;6.50;;;;;;;12.83;100.00;101894.34;5094041;28;20050;-76
2023/02/25 01:33:37;;;;;;;28.65;8.35;;;;;;;12.59;100.00;101894.47;5093734;28;20073;-70
2023/02/25 01:36:07;;;;;;;23.70;7.47;;;;;;;12.67;100.00;101897.34;5093923;28;20053;-74
2023/02/25 01:38:33;;;;;;;25.65;7.57;;;;;;;12.00;100.00;101899.41;5093893;28;20020;-75
2023/02/25 01:41:00;;;;;;;21.42;7.05;;;;;;;12.61;100.00;101890.31;5094072;28;20390;-69
2023/02/25 01:43:27;;;;;;;17.55;6.07;;;;;;;12.67;100.00;101891.84;5093732;28;20034;-65
2023/02/25 01:45:54;;;;;;;16.90;6.22;;;;;;;12.72;100.00;101891.78;5093727;28;20062;-65
2023/02/25 01:48:32;;;;;;;21.48;6.50;;;;;;;12.66;100.00;101883.94;5093305;28;20035;-65
2023/02/25 01:51:16;;;;;;;24.05;6.47;;;;;;;12.36;100.00;101893.44;5075531;28;20032;-65
2023/02/25 01:53:45;;;;;;;15.90;5.47;;;;;;;12.67;100.00;101880.06;5093566;28;20031;-65
2023/02/25 01:56:15;;;;;;;21.65;7.28;;;;;;;12.35;100.00;101895.38;5093621;28;20378;-65
2023/02/25 01:58:42;;;;;;;22.48;6.88;;;;;;;12.43;100.00;101902.13;5093232;28;20020;-65
2023/02/25 02:01:14;;;;;;;23.52;7.50;;;;;;;12.41;100.00;101901.59;5086221;28;20028;-79
2023/02/25 02:03:41;;;;;;;18.83;6.63;;;;;;;12.32;100.00;101908.84;5073294;28;20048;-66
2023/02/25 02:06:19;;;;;;;24.50;6.30;;;;;;;12.55;100.00;101912.63;5072963;28;20487;-65
2023/02/25 02:08:47;;;;;;;22.73;7.05;;;;;;;12.70;100.00;101907.72;5058265;28;20024;-65
2023/02/25 02:11:13;;;;;;;21.83;6.80;;;;;;;12.70;100.00;101915.16;5092689;28;20032;-77
2023/02/25 02:13:43;;;;;;;20.63;7.40;;;;;;;12.69;100.00;101911.56;5093453;28;20066;-76
2023/02/25 02:16:37;;;;;;;26.90;6.65;;;;;;;12.72;100.00;101910.97;5093103;28;20569;-78
2023/02/25 02:19:46;;;;;;;15.73;6.32;;;;;;;12.64;100.00;101919.06;5092921;28;20077;-65
2023/02/25 02:22:16;;;;;;;24.08;7.57;;;;;;;12.45;100.00;101917.13;5010636;28;20511;-79
2023/02/25 02:25:23;;;;;;;23.10;6.70;;;;;;;12.33;100.00;101921.47;5074181;28;20119;-79
2023/02/25 02:28:16;;;;;;;19.20;6.55;;;;;;;12.38;100.00;101926.84;5092294;28;20032;-79
2023/02/25 02:31:19;;;;;;;21.25;6.85;;;;;;;12.31;100.00;101929.94;5092832;28;20032;-67
2023/02/25 02:33:53;;;;;;;17.50;5.47;;;;;;;12.45;100.00;101936.34;5092951;28;20024;-75
2023/02/25 02:36:51;;;;;;;26.75;8.23;;;;;;;12.48;100.00;101943.97;5092787;28;20032;-65
2023/02/25 02:39:43;;;;;;;22.77;5.65;;;;;;;12.35;100.00;101939.22;5092892;28;20394;-66
2023/02/25 02:42:34;;;;;;;15.55;5.75;;;;;;;12.51;100.00;101948.03;5092673;28;20032;-65
2023/02/25 02:45:18;;;;;;;22.40;5.82;;;;;;;12.52;100.00;101941.44;5092763;28;20360;-79
2023/02/25 02:48:19;;;;;;;19.08;5.55;;;;;;;12.55;100.00;101935.38;5092700;28;20030;-65
2023/02/25 02:50:51;;;;;;;19.35;5.75;;;;;;;12.59;100.00;101930.91;5092474;28;20035;-65
2023/02/25 02:53:23;;;;;;;19.48;5.78;;;;;;;12.23;100.00;101938.84;5092561;28;20040;-78
2023/02/25 02:55:52;;;;;;;14.48;5.57;;;;;;;12.12;100.00;101940.91;5092841;28;20028;-65
2023/02/25 02:58:29;;;;;;;16.60;5.47;;;;;;;12.41;100.00;101938.06;5092297;28;20032;-78
2023/02/25 03:01:04;;;;;;;13.85;4.22;;;;;;;12.47;100.00;101936.06;5092455;28;20031;-77
2023/02/25 03:03:38;;;;;;;12.55;4.60;;;;;;;12.47;100.00;101953.31;5070872;28;20049;-77
2023/02/25 03:06:09;;;;;;;14.32;4.07;;;;;;;12.49;100.00;101953.03;5072356;28;20025;-70
2023/02/25 03:08:46;;;;;;;17.65;5.25;;;;;;;12.42;100.00;101949.81;5072153;28;20032;-78
2023/02/25 03:11:13;;;;;;;18.15;4.28;;;;;;;12.70;100.00;101948.88;5065217;28;20409;-77
2023/02/25 03:13:40;;;;;;;12.65;4.65;;;;;;;12.78;100.00;101955.59;5071925;28;20035;-79
2023/02/25 03:16:11;;;;;;;13.20;4.95;;;;;;;12.60;100.00;101962.72;5071735;28;20035;-78
2023/02/25 03:18:43;;;;;;;19.08;4.75;;;;;;;12.58;100.00;101955.91;5072075;28;20036;-77
2023/02/25 03:21:20;;;;;;;13.10;4.65;;;;;;;12.52;100.00;101957.91;5072080;28;20111;-76
2023/02/25 03:23:47;;;;;;;18.90;4.55;;;;;;;12.53;100.00;101955.97;5073425;28;20115;-65
2023/02/25 03:26:32;;;;;;;12.88;4.35;;;;;;;12.58;100.00;101951.22;5076213;28;20032;-78
2023/02/25 03:28:58;;;;;;;16.13;4.88;;;;;;;12.66;100.00;101953.31;5076135;28;20070;-65
2023/02/25 03:31:31;;;;;;;17.45;5.47;;;;;;;12.63;100.00;101958.56;5074603;28;20075;-79
2023/02/25 03:34:02;;;;;;;17.02;5.22;;;;;;;12.65;100.00;101965.38;5075882;28;20498;-66
2023/02/25 03:36:35;;;;;;;13.98;4.25;;;;;;;12.42;100.00;101963.53;5076069;28;20056;-79
2023/02/25 03:39:09;;;;;;;21.30;5.80;;;;;;;12.39;100.00;101966.84;5076224;28;20024;-69
2023/02/25 03:41:41;;;;;;;14.18;4.63;;;;;;;12.43;100.00;101965.97;5075624;28;20364;-64
2023/02/25 03:44:15;;;;;;;14.20;5.65;;;;;;;12.42;100.00;101972.56;5075523;28;20024;-65
2023/02/25 03:46:43;;;;;;;17.00;5.05;;;;;;;12.48;100.00;101974.13;5075851;28;20420;-66
2023/02/25 03:49:14;;;;;;;16.20;5.15;;;;;;;12.63;100.00;101970.34;5075602;28;20512;-65
2023/02/25 03:51:42;;;;;;;16.08;5.18;;;;;;;12.76;100.00;101964.09;5072909;28;20037;-77
2023/02/25 03:54:08;;;;;;;19.15;5.38;;;;;;;12.78;100.00;101972.88;5055579;28;20024;-77
2023/02/25 03:56:46;;;;;;;13.95;5.43;;;;;;;12.62;100.00;101979.69;5054480;28;20021;-65
2023/02/25 03:59:13;;;;;;;16.40;5.88;;;;;;;12.78;100.00;101969.31;5055412;28;20021;-65
2023/02/25 04:01:41;;;;;;;16.33;4.93;;;;;;;12.91;100.00;101981.44;5070206;28;20063;-78
2023/02/25 04:04:07;;;;;;;22.30;6.43;;;;;;;12.97;100.00;101983.81;5095639;28;20103;-65
2023/02/25 04:06:33;;;;;;;16.15;4.57;;;;;;;12.90;100.00;101980.63;5095627;28;20031;-67
2023/02/25 04:08:59;;;;;;;21.58;6.18;;;;;;;12.90;100.00;101985.31;5095854;28;20028;-75
2023/02/25 04:11:25;;;;;;;29.40;6.18;;;;;;;12.82;100.00;101991.47;5095352;28;20470;-69
2023/02/25 04:13:50;;;;;;;19.85;6.53;;;;;;;12.97;100.00;101985.75;5077099;28;20032;-74
2023/02/25 04:16:16;;;;;;;18.65;5.75;;;;;;;13.04;100.00;101988.91;5093492;28;20061;-79
2023/02/25 04:18:42;;;;;;;20.08;4.85;;;;;;;13.10;100.00;101992.41;5084042;28;20086;-76
2023/02/25 04:21:08;;;;;;;11.55;4.60;;;;;;;13.04;100.00;101975.19;5081207;28;20028;-78
2023/02/25 04:23:35;;;;;;;19.73;5.75;;;;;;;12.90;100.00;101979.81;5095351;28;20032;-64
2023/02/25 04:26:01;;;;;;;14.60;4.28;;;;;;;12.73;100.00;101972.94;5095216;28;20028;-65
2023/02/25 04:28:26;;;;;;;13.88;4.88;;;;;;;12.71;100.00;101979.84;5095191;28;20115;-66
2023/02/25 04:30:52;;;;;;;12.40;5.50;;;;;;;12.76;100.00;101980.56;5095086;28;20103;-65
2023/02/25 04:33:18;;;;;;;33.90;6.15;;;;;;;12.70;100.00;101987.25;5095166;28;20512;-78
2023/02/25 04:35:43;;;;;;;16.27;4.68;;;;;;;12.79;100.00;101987.41;5094692;28;20386;-65
2023/02/25 04:38:09;;;;;;;14.85;4.93;;;;;;;12.83;100.00;101993.09;5089886;28;20036;-64
2023/02/25 04:40:36;;;;;;;11.13;4.30;;;;;;;12.93;100.00;101990.22;5094681;28;20097;-65
2023/02/25 04:43:01;;;;;;;9.57;3.33;;;;;;;12.94;100.00;101989.09;5094967;28;20032;-65
2023/02/25 04:45:27;;;;;;;5.75;2.33;;;;;;;12.93;100.00;101996.50;5094740;28;20036;-65
2023/02/25 04:47:56;;;;;;;9.02;1.90;;;;;;;12.99;100.00;101991.72;5094898;28;20027;-65
2023/02/25 04:50:22;;;;;;;5.82;1.60;;;;;;;13.10;100.00;101998.69;5095024;28;20032;-65
2023/02/25 04:52:48;;;;;;;8.43;1.38;;;;;;;13.22;100.00;101996.31;5094602;28;20093;-65
2023/02/25 04:55:15;;;;;;;9.05;2.35;;;;;;;13.20;100.00;101998.56;5094734;28;20590;-65
2023/02/25 04:57:41;;;;;;;8.15;1.88;;;;;;;13.28;100.00;102008.03;5094638;28;20470;-65
2023/02/25 05:00:27;;;;;;;4.05;1.60;;;;;;;13.32;100.00;102000.84;5094657;28;20073;-76
2023/02/25 05:02:53;;;;;;;3.85;1.20;;;;;;;13.39;100.00;102006.75;5094123;28;20055;-76
2023/02/25 05:05:19;;;;;;;1.77;1.17;;;;;;;13.36;100.00;102012.84;5094580;28;20028;-65
2023/02/25 05:07:45;;;;;;;6.57;1.42;;;;;;;13.35;100.00;102010.41;5094596;28;20103;-65
2023/02/25 05:10:13;;;;;;;3.50;1.20;;;;;;;13.43;100.00;102016.00;5094273;28;20085;-65
2023/02/25 05:12:39;;;;;;;4.60;1.23;;;;;;;13.50;100.00;102021.13;5094525;28;20394;-72
2023/02/25 05:15:07;;;;;;;5.70;1.42;;;;;;;13.47;100.00;102028.03;5094354;28;20032;-68
2023/02/25 05:17:33;;;;;;;5.35;1.88;;;;;;;13.37;100.00;102025.44;5094294;28;20424;-65
2023/02/25 05:19:59;;;;;;;6.43;1.95;;;;;;;12.84;100.00;102033.94;5094178;28;20121;-68
2023/02/25 05:22:25;;;;;;;8.95;3.58;;;;;;;12.38;100.00;102031.00;5094007;28;20111;-65
2023/02/25 05:24:53;;;;;;;11.38;4.00;;;;;;;12.47;100.00;102040.22;5094184;28;20020;-78
2023/02/25 05:27:18;;;;;;;9.27;2.42;;;;;;;12.58;100.00;102036.22;5094080;28;20020;-64
2023/02/25 05:29:44;;;;;;;7.00;1.52;;;;;;;12.67;100.00;102034.44;5093844;28;20078;-64
2023/02/25 05:32:10;;;;;;;3.47;1.15;;;;;;;12.62;100.00;102039.19;5094166;28;20046;-65
2023/02/25 05:34:36;;;;;;;3.60;1.35;;;;;;;12.71;100.00;102029.22;5093999;28;20458;-79
2023/02/25 05:37:01;;;;;;;5.13;1.55;;;;;;;12.69;100.00;102034.16;5093880;28;20024;-79
2023/02/25 05:39:27;;;;;;;11.65;1.60;;;;;;;12.66;100.00;102037.50;5093992;28;20039;-79
2023/02/25 05:41:53;;;;;;;4.88;1.45;;;;;;;12.69;100.00;102039.63;5093761;28;20445;-70
2023/02/25 05:44:19;;;;;;;6.53;0.98;;;;;;;12.75;100.00;102047.50;5091850;28;20522;-79
2023/02/25 05:46:45;;;;;;;8.35;2.03;;;;;;;12.73;100.00;102041.50;5072866;28;20060;-69
2023/02/25 05:49:10;;;;;;;6.22;1.35;;;;;;;12.61;100.00;102038.38;5073322;28;20467;-64
2023/02/25 05:51:36;;;;;;;6.80;1.60;;;;;;;12.42;100.00;102052.06;5084175;28;20032;-68
2023/02/25 05:54:02;;;;;;;6.50;1.38;;;;;;;12.65;100.00;102046.84;5082179;28;20028;-64
2023/02/25 05:56:28;;;;;;;4.72;1.20;;;;;;;12.58;100.00;102049.94;5073277;28;20032;-64
2023/02/25 05:58:54;;;;;;;4.55;1.20;;;;;;;12.79;100.00;102045.00;5073344;28;20028;-78
2023/02/25 06:01:23;;;;;;;7.63;2.33;;;;;;;12.73;100.00;102049.72;5081306;28;20016;-65
2023/02/25 06:03:57;;;;;;;12.15;4.95;;;;;;;12.73;100.00;102060.69;5093358;28;20032;-65
2023/02/25 06:06:25;;;;;;;13.93;4.88;;;;;;;12.67;100.00;102050.09;5080696;28;20044;-72
2023/02/25 06:08:51;;;;;;;11.43;4.75;;;;;;;13.23;100.00;102050.13;5093556;28;20063;-65
2023/02/25 06:11:28;;;;;;;15.88;4.78;;;;;;;13.45;100.00;102048.66;5093071;28;20466;-79
2023/02/25 06:13:55;;;;;;;14.07;4.95;;;;;;;13.06;100.00;102052.53;5093281;28;20052;-78
2023/02/25 06:16:24;;;;;;;10.02;4.90;;;;;;;13.11;100.00;102049.72;5074980;28;20020;-65
2023/02/25 06:18:50;;;;;;;12.13;5.40;;;;;;;13.28;100.00;102061.00;5093144;28;20020;-78
2023/02/25 06:21:17;;;;;;;12.00;5.53;;;;;;;13.18;100.00;102050.16;5093005;28;20036;-66
2023/02/25 06:23:43;;;;;;;14.88;6.32;;;;;;;13.25;100.00;102056.13;5093022;28;20064;-73
2023/02/25 06:26:12;;;;;;;10.38;4.82;;;;;;;12.99;100.00;102061.13;5093097;28;20024;-73
2023/02/25 06:28:38;;;;;;;15.45;5.68;;;;;;;12.93;100.00;102062.34;5085255;28;20089;-77
2023/02/25 06:31:13;;;;;;;14.40;5.03;;;;;;;13.01;100.00;102060.88;5087987;28;20032;-77
2023/02/25 06:33:39;;;;;;;9.38;5.13;;;;;;;13.19;100.00;102062.75;5074733;28;20393;-73
2023/02/25 06:36:06;;;;;;;9.60;5.10;;;;;;;13.16;100.00;102062.56;5093077;28;20118;-69
2023/02/25 06:38:33;;;;;;;10.65;5.30;;;;;;;13.00;100.00;102060.06;5092875;28;20422;-65
2023/02/25 06:40:59;;;;;;;15.13;5.63;;;;;;;13.03;100.00;102064.94;5092154;28;20028;-65
2023/02/25 06:43:25;;;;;;;11.75;5.50;;;;;;;13.07;100.00;102062.41;5088245;28;20064;-79
2023/02/25 06:45:50;;;;;;;13.73;5.75;;;;;;;12.93;100.00;102072.50;5072631;28;20051;-79
2023/02/25 06:48:16;;;;;;;8.88;5.35;;;;;;;12.90;100.00;102067.59;5072843;28;20027;-70
2023/02/25 06:50:42;;;;;;;16.95;5.68;;;;;;;12.95;100.00;102076.56;5077996;28;20121;-75
2023/02/25 06:53:08;;;;;;;7.38;2.28;;;;;;;12.96;100.00;102077.41;5092640;28;20470;-78
2023/02/25 06:55:36;;;;;;;11.05;1.95;;;;;;;12.89;100.00;102076.94;5092655;28;20024;-74
2023/02/25 06:58:02;;;;;;;8.65;1.98;;;;;;;12.73;100.00;102068.94;5092194;28;20032;-65
2023/02/25 07:00:28;;;;;;;6.75;2.22;;;;;;;12.73;100.00;102077.16;5092362;28;20107;-65
2023/02/25 07:02:53;;;;;;;7.68;2.25;;;;;;;12.81;100.00;102081.16;5092177;28;20048;-77
2023/02/25 07:05:19;;;;;;;2.40;0.95;;;;;;;13.15;96.27;102088.34;5092555;28;20130;-76
2023/02/25 07:07:44;;;;;;;2.63;0.85;;;;;;;13.00;100.00;102089.41;5092427;28;20389;-65
2023/02/25 07:10:11;;;;;;;3.85;1.00;;;;;;;12.76;100.00;102093.00;5092255;28;20107;-78
2023/02/25 07:12:36;;;;;;;4.18;1.13;;;;;;;13.03;100.00;102086.88;5074150;28;20083;-66
2023/02/25 07:15:02;;;;;;;2.05;1.17;;;;;;;12.72;100.00;102093.91;5092088;28;20416;-65
2023/02/25 07:17:28;;;;;;;3.38;1.23;;;;;;;12.78;100.00;102100.97;5074824;28;20095;-79
2023/02/25 07:19:55;;;;;;;9.02;1.60;;;;;;;12.93;98.46;102106.25;5072314;28;20029;-64
2023/02/25 07:22:20;;;;;;;5.85;2.30;;;;;;;12.78;99.31;102106.44;5089947;28;20036;-80
2023/02/25 07:24:46;;;;;;;3.25;1.15;;;;;;;12.74;96.62;102108.94;5092358;28;20032;-67
2023/02/25 07:27:13;;;;;;;9.23;2.40;;;;;;;12.81;94.74;102110.53;5090514;28;20539;-74
2023/02/25 07:29:39;;;;;;;4.72;0.90;;;;;;;12.87;90.96;102106.59;5089137;28;20501;-78
2023/02/25 07:32:04;;;;;;;4.90;1.40;;;;;;;12.61;92.74;102109.66;5091540;28;20031;-66
2023/02/25 07:34:30;;;;;;;6.32;1.55;;;;;;;12.88;89.79;102106.31;5073717;28;20024;-65
2023/02/25 07:36:56;;;;;;;7.10;1.58;;;;;;;12.99;85.88;102101.47;5092199;28;20035;-65
2023/02/25 07:39:22;;;;;;;4.95;1.40;;;;;;;12.85;86.17;102100.59;5092211;28;20050;-78
2023/02/25 07:41:47;;;;;;;7.30;1.75;;;;;;;12.92;85.63;102106.50;5092031;28;20046;-80
2023/02/25 07:44:13;;;;;;;3.05;1.02;;;;;;;13.01;81.81;102107.50;5085687;28;20028;-78
2023/02/25 07:46:40;;;;;;;4.57;1.00;;;;;;;12.96;79.60;102108.38;5072021;28;20036;-75
2023/02/25 07:49:06;;;;;;;3.83;1.05;;;;;;;12.74;81.13;102106.22;5071887;28;20095;-65
2023/02/25 07:51:31;;;;;;;8.10;1.70;;;;;;;12.94;81.28;102112.53;5086402;28;20112;-80
2023/02/25 07:53:58;;;;;;;4.45;1.42;;;;;;;13.01;81.97;102116.56;5091987;28;20076;-75
2023/02/25 07:56:25;;;;;;;4.47;1.60;;;;;;;12.82;87.10;102120.38;5085910;28;20052;-80
2023/02/25 07:58:51;;;;;;;8.00;2.10;;;;;;;12.90;87.36;102123.28;5078719;28;20070;-79
2023/02/25 08:01:19;;;;;;;6.22;1.02;;;;;;;12.94;87.95;102118.84;5083992;28;20355;-78
2023/02/25 08:03:48;;;;;;;3.50;1.17;;;;;;;13.05;86.79;102136.78;5091893;28;20028;-76
2023/02/25 08:06:14;;;;;;;7.72;1.50;;;;;;;12.88;85.53;102132.91;5073868;28;20074;-77
2023/02/25 08:08:40;;;;;;;6.55;2.33;;;;;;;12.87;78.62;102136.78;5092098;28;20066;-78
2023/02/25 08:11:11;;;;;;;3.60;0.90;;;;;;;12.68;77.05;102090.91;5088892;28;20024;-80
2023/02/25 08:13:37;;;;;;;5.50;1.23;;;;;;;12.66;78.41;102144.44;5089610;28;20445;-77
2023/02/25 08:16:05;;;;;;;4.72;1.05;;;;;;;12.82;75.87;102153.28;5095720;28;20051;-78
2023/02/25 08:18:30;;;;;;;3.78;1.27;;;;;;;12.85;71.67;102155.47;5095596;28;20082;-78
2023/02/25 08:20:57;;;;;;;5.85;1.70;;;;;;;12.76;66.99;102147.06;5095273;28;20028;-79
2023/02/25 08:23:24;;;;;;;7.57;1.67;;;;;;;12.76;71.13;102152.53;5095510;28;20032;-80
2023/02/25 08:25:54;;;;;;;8.88;1.35;;;;;;;12.78;71.82;102153.91;5091577;28;20039;-65
2023/02/25 08:28:21;;;;;;;3.60;1.48;;;;;;;12.60;75.40;102151.91;5087782;28;20024;-65
2023/02/25 08:30:47;;;;;;;6.20;2.17;;;;;;;12.67;74.38;102162.53;5095200;28;20091;-65
2023/02/25 08:33:13;;;;;;;9.07;1.80;;;;;;;12.33;77.13;102160.72;5095007;28;20039;-76
2023/02/25 08:35:39;;;;;;;15.40;2.20;;;;;;;12.47;75.08;102161.66;5095311;28;20393;-79
2023/02/25 08:38:04;;;;;;;25.70;3.72;;;;;;;12.49;74.15;102173.16;5088738;28;20107;-78
2023/02/25 08:40:30;;;;;;;16.85;3.58;;;;;;;12.72;71.91;102166.03;5082940;28;20056;-80
2023/02/25 08:42:56;;;;;;;5.95;1.30;;;;;;;12.87;68.28;102173.25;5095255;28;20036;-80
2023/02/25 08:45:22;;;;;;;18.02;3.08;;;;;;;12.80;70.11;102183.78;5068994;28;20507;-78
2023/02/25 08:47:48;;;;;;;30.42;5.70;;;;;;;12.80;69.98;102191.19;5083701;28;20031;-79
2023/02/25 08:50:16;;;;;;;12.98;2.03;;;;;;;12.95;67.44;102185.50;5084130;28;20021;-79
2023/02/25 08:52:42;;;;;;;23.63;4.32;;;;;;;12.82;68.19;102188.94;5081427;28;20020;-65
2023/02/25 08:55:08;;;;;;;10.75;1.52;;;;;;;12.82;66.38;102189.75;5076420;28;20020;-78
2023/02/25 08:57:34;;;;;;;5.20;1.67;;;;;;;12.78;66.75;102186.81;5090755;28;20137;-65
2023/02/25 08:59:59;;;;;;;23.17;3.45;;;;;;;12.73;67.09;102177.81;5074526;28;20100;-75
2023/02/25 09:02:25;;;;;;;11.45;2.55;;;;;;;13.04;65.42;102190.03;5074167;28;20040;-64
2023/02/25 09:04:51;;;;;;;11.75;3.60;;;;;;;13.03;66.58;102190.34;5083354;28;20393;-75
2023/02/25 09:07:16;;;;;;;19.38;4.13;;;;;;;13.11;67.41;102194.34;5094288;28;20028;-64
2023/02/25 09:09:43;;;;;;;5.63;1.73;;;;;;;13.07;66.60;102194.09;5094504;28;20043;-64
2023/02/25 09:12:09;;;;;;;11.93;3.17;;;;;;;12.84;67.09;102200.44;5092807;28;20032;-64
2023/02/25 09:14:35;;;;;;;29.42;4.40;;;;;;;13.11;66.82;102202.59;5092486;28;20523;-64
2023/02/25 09:17:02;;;;;;;18.50;2.75;;;;;;;13.40;64.48;102202.50;5088973;28;20027;-78
2023/02/25 09:19:28;;;;;;;18.35;3.00;;;;;;;13.23;64.62;102197.53;5085152;28;20027;-64
2023/02/25 09:21:54;;;;;;;14.30;2.78;;;;;;;13.28;64.48;102209.22;5083598;28;20020;-65
2023/02/25 09:24:19;;;;;;;3.80;1.20;;;;;;;13.31;63.25;102200.41;5076239;28;20478;-64
2023/02/25 09:26:46;;;;;;;7.97;2.05;;;;;;;13.48;63.55;102204.56;5093448;28;20016;-73
2023/02/25 09:29:12;;;;;;;22.02;4.30;;;;;;;13.52;64.06;102205.59;5094092;28;20470;-64
2023/02/25 09:31:38;;;;;;;20.08;4.95;;;;;;;13.56;62.75;102203.91;5094166;28;20109;-64
2023/02/25 09:34:06;;;;;;;14.95;2.15;;;;;;;13.55;62.16;102202.28;5093999;28;20024;-64
2023/02/25 09:36:32;;;;;;;3.55;1.23;;;;;;;13.56;61.06;102214.88;5093871;28;20020;-64
2023/02/25 09:38:58;;;;;;;13.30;2.03;;;;;;;13.50;60.76;102216.06;5093776;28;20118;-64
2023/02/25 09:41:26;;;;;;;11.63;2.60;;;;;;;13.42;60.89;102214.00;5093381;28;20056;-77
2023/02/25 09:44:00;;;;;;;16.98;4.43;;;;;;;13.63;60.61;102220.81;5093032;28;20036;-64
2023/02/25 09:46:29;;;;;;;8.35;1.90;;;;;;;13.64;59.96;102216.16;5075754;28;20028;-69
2023/02/25 09:49:04;;;;;;;7.45;1.30;;;;;;;13.52;59.83;102219.31;5073529;28;20028;-65
2023/02/25 09:51:37;;;;;;;23.00;4.25;;;;;;;13.58;61.21;102221.72;5088915;28;20028;-64
2023/02/25 09:54:21;;;;;;;6.45;1.73;;;;;;;13.34;60.36;102215.47;5093598;28;20446;-77
2023/02/25 09:56:47;;;;;;;15.82;3.35;;;;;;;13.21;61.68;102218.94;5093507;28;20119;-64
2023/02/25 09:59:20;;;;;;;5.78;2.08;;;;;;;13.35;60.89;102227.28;5093739;28;20103;-64
2023/02/25 10:02:19;;;;;;;19.15;3.55;;;;;;;13.14;59.99;102218.44;5092981;28;20044;-64
2023/02/25 10:05:02;;;;;;;11.18;2.03;;;;;;;13.18;61.03;102231.31;5037562;28;20068;-64
2023/02/25 10:07:34;;;;;;;8.05;1.88;;;;;;;13.37;60.32;102234.09;5093433;28;20028;-64
2023/02/25 10:10:20;;;;;;;27.10;3.97;;;;;;;13.52;59.61;102231.13;5092371;28;20510;-68
2023/02/25 10:13:01;;;;;;;6.57;1.52;;;;;;;13.53;59.73;102229.22;5065753;28;20454;-70
2023/02/25 10:15:46;;;;;;;10.55;2.75;;;;;;;13.47;59.96;102233.97;5083362;28;20036;-72
2023/02/25 10:18:21;;;;;;;9.43;3.22;;;;;;;13.04;60.19;102224.91;5083994;28;20028;-63
2023/02/25 10:20:50;;;;;;;6.63;1.80;;;;;;;13.12;61.90;102232.47;5086188;28;20096;-78
2023/02/25 10:23:36;;;;;;;15.88;3.95;;;;;;;13.28;61.94;102231.19;5083738;28;20115;-64
2023/02/25 10:26:20;;;;;;;7.10;1.70;;;;;;;13.09;63.24;102235.81;5073148;28;20482;-64
2023/02/25 10:28:52;;;;;;;14.70;2.47;;;;;;;12.88;68.59;102243.47;5084214;28;20467;-64
2023/02/25 10:31:20;;;;;;;5.47;2.75;;;;;;;12.98;66.11;102242.53;5092681;28;20107;-63
2023/02/25 10:33:49;;;;;;;4.65;1.88;;;;;;;12.52;65.20;102251.25;5091688;28;20035;-64
2023/02/25 10:36:18;;;;;;;15.57;3.13;;;;;;;12.75;63.08;102247.72;5083530;28;20157;-68
2023/02/25 10:38:47;;;;;;;28.20;3.95;;;;;;;12.66;64.46;102249.47;5083448;28;21366;-64
2023/02/25 10:41:13;;;;;;;7.65;2.45;;;;;;;12.76;62.61;102252.09;5086887;28;20027;-65
2023/02/25 10:43:40;;;;;;;4.57;1.10;;;;;;;12.49;59.95;102258.13;5092690;28;20031;-64
2023/02/25 10:46:36;;;;;;;7.80;2.20;;;;;;;12.55;60.99;102256.16;5092689;28;20028;-66
2023/02/25 10:49:14;;;;;;;10.18;2.30;;;;;;;12.78;61.14;102255.38;5092757;28;20045;-64
2023/02/25 10:52:05;;;;;;;16.88;2.92;;;;;;;12.57;59.48;102264.91;5091843;28;20055;-74
2023/02/25 10:54:34;;;;;;;5.28;1.70;;;;;;;12.87;57.32;102260.22;5092728;28;20069;-70
2023/02/25 10:57:07;;;;;;;8.95;1.70;;;;;;;12.87;56.93;102257.47;5092550;28;20020;-64
2023/02/25 10:59:38;;;;;;;8.60;2.03;;;;;;;12.86;57.76;102255.84;5089513;28;20451;-79
2023/02/25 11:02:26;;;;;;;17.88;3.42;;;;;;;13.25;56.61;102256.50;5090575;28;20063;-73
2023/02/25 11:04:53;;;;;;;10.32;1.55;;;;;;;13.33;56.26;102260.50;5076338;28;20028;-78
2023/02/25 11:07:33;;;;;;;6.80;2.10;;;;;;;13.24;55.71;102254.88;5092269;28;20024;-76
2023/02/25 11:10:18;;;;;;;7.30;1.83;;;;;;;13.44;55.96;102263.94;5085719;28;20425;-77
2023/02/25 11:12:46;;;;;;;7.72;1.60;;;;;;;13.52;54.93;102266.81;5091075;28;20119;-64
2023/02/25 11:15:29;;;;;;;9.63;2.03;;;;;;;13.15;55.48;102267.59;5092328;28;20549;-65
2023/02/25 11:18:13;;;;;;;14.35;2.78;;;;;;;13.64;55.77;102273.81;5085997;28;20425;-78
2023/02/25 11:20:41;;;;;;;12.55;2.83;;;;;;;13.79;55.18;102259.88;5080010;28;20031;-74
2023/02/25 11:23:31;;;;;;;6.20;1.70;;;;;;;13.53;54.70;102264.94;5079869;28;20791;-65
2023/02/25 11:25:56;;;;;;;8.80;2.58;;;;;;;13.62;55.19;102268.63;5080043;28;20036;-65
2023/02/25 11:28:30;;;;;;;9.75;2.33;;;;;;;13.51;54.45;102267.94;5079691;28;20032;-79